createdAt,value
2019-04-19T00:00:42.550Z,23.33
2019-04-19T00:03:10.765Z,27.30
2019-04-19T00:06:13.655Z,27.20
2019-04-19T00:08:54.111Z,28.80
2019-04-19T00:11:17.726Z,33.50
2019-04-19T00:13:32.936Z,25.90
2019-04-19T00:16:00.537Z,23.37
2019-04-19T00:18:28.259Z,19.80
2019-04-19T00:21:13.803Z,28.10
2019-04-19T00:23:33.135Z,28.93
2019-04-19T00:25:53.620Z,23.37
2019-04-19T00:28:31.883Z,21.17
2019-04-19T00:30:56.829Z,19.87
2019-04-19T00:33:26.084Z,20.43
2019-04-19T00:35:47.447Z,26.37
2019-04-19T00:38:26.529Z,22.60
2019-04-19T00:41:11.486Z,27.30
2019-04-19T00:44:06.924Z,31.80
2019-04-19T00:46:38.322Z,22.33
2019-04-19T00:49:05.556Z,22.70
2019-04-19T00:51:39.922Z,24.40
2019-04-19T00:54:00.346Z,24.73
2019-04-19T00:56:32.713Z,22.33
2019-04-19T00:58:53.298Z,22.63
2019-04-19T01:01:21.522Z,22.63
2019-04-19T01:03:48.710Z,18.07
2019-04-19T01:06:18.287Z,24.30
2019-04-19T01:08:56.372Z,20.73
2019-04-19T01:11:23.389Z,26.57
2019-04-19T01:13:56.235Z,19.97
2019-04-19T01:16:21.207Z,24.93
2019-04-19T01:18:47.291Z,24.63
2019-04-19T01:21:06.981Z,27.50
2019-04-19T01:23:40.799Z,26.17
2019-04-19T01:26:05.824Z,37.90
2019-04-19T01:28:32.520Z,27.17
2019-04-19T01:31:02.970Z,30.27
2019-04-19T01:33:34.529Z,23.67
2019-04-19T01:36:02.072Z,24.50
2019-04-19T01:38:32.530Z,22.50
2019-04-19T01:41:13.300Z,19.97
2019-04-19T01:43:48.869Z,24.70
2019-04-19T01:46:32.092Z,29.53
2019-04-19T01:48:53.565Z,22.70
2019-04-19T01:51:42.540Z,25.40
2019-04-19T01:54:24.788Z,24.93
2019-04-19T01:56:47.251Z,22.20
2019-04-19T01:59:07.858Z,26.90
2019-04-19T02:01:35.980Z,25.30
2019-04-19T02:04:06.355Z,29.00
2019-04-19T02:06:37.864Z,24.50
2019-04-19T02:09:01.975Z,26.70
2019-04-19T02:11:50.480Z,24.07
2019-04-19T02:14:15.420Z,28.10
2019-04-19T02:16:38.646Z,23.53
2019-04-19T02:19:11.720Z,24.20
2019-04-19T02:21:38.996Z,31.27
2019-04-19T02:24:05.116Z,24.17
2019-04-19T02:26:32.350Z,23.83
2019-04-19T02:29:07.505Z,27.70
2019-04-19T02:31:58.081Z,27.60
2019-04-19T02:34:28.786Z,25.80
2019-04-19T02:37:05.190Z,25.70
2019-04-19T02:41:58.037Z,26.00
2019-04-19T02:44:18.192Z,27.37
2019-04-19T02:47:08.832Z,26.77
2019-04-19T02:49:24.060Z,28.00
2019-04-19T02:51:50.131Z,27.93
2019-04-19T02:54:22.676Z,25.40
2019-04-19T02:57:31.414Z,25.33
2019-04-19T02:59:59.131Z,27.80
2019-04-19T03:02:38.355Z,24.30
2019-04-19T03:05:04.403Z,30.60
2019-04-19T03:06:56.115Z,28.83
2019-04-19T03:09:24.231Z,27.33
2019-04-19T03:12:02.214Z,23.17
2019-04-19T03:14:35.513Z,22.90
2019-04-19T03:17:07.290Z,26.40
2019-04-19T03:19:27.699Z,26.47
2019-04-19T03:21:56.012Z,33.23
2019-04-19T03:24:25.228Z,26.30
2019-04-19T03:26:54.084Z,24.40
2019-04-19T03:29:22.291Z,22.67
2019-04-19T03:32:17.777Z,22.17
2019-04-19T03:34:48.245Z,27.60
2019-04-19T03:36:50.721Z,29.70
2019-04-19T03:39:49.001Z,23.33
2019-04-19T03:42:06.134Z,26.43
2019-04-19T03:44:30.618Z,31.70
2019-04-19T03:49:40.034Z,21.33
2019-04-19T03:54:28.259Z,32.00
2019-04-19T03:56:55.043Z,25.20
2019-04-19T03:59:09.397Z,35.57
2019-04-19T04:01:42.331Z,30.40
2019-04-19T04:04:11.788Z,29.10
2019-04-19T04:06:37.072Z,24.77
2019-04-19T04:09:08.308Z,23.30
2019-04-19T04:11:51.972Z,22.40
2019-04-19T04:14:25.673Z,21.53
2019-04-19T04:16:58.383Z,27.17
2019-04-19T04:19:27.247Z,40.50
2019-04-19T04:21:55.610Z,25.10
2019-04-19T04:24:29.130Z,27.27
2019-04-19T04:27:00.148Z,26.03
2019-04-19T04:29:27.833Z,27.77
2019-04-19T04:32:03.321Z,20.70
2019-04-19T04:34:29.346Z,27.93
2019-04-19T04:37:05.294Z,26.10
2019-04-19T04:39:16.075Z,26.87
2019-04-19T04:41:46.022Z,23.70
2019-04-19T04:44:29.530Z,27.70
2019-04-19T04:47:19.279Z,23.43
2019-04-19T04:49:59.412Z,21.73
2019-04-19T04:52:32.522Z,27.10
2019-04-19T04:55:01.002Z,28.53
2019-04-19T04:57:39.521Z,23.07
2019-04-19T04:59:59.237Z,24.70
2019-04-19T05:02:42.731Z,26.23
2019-04-19T05:05:11.367Z,27.80
2019-04-19T05:07:39.259Z,24.37
2019-04-19T05:10:12.419Z,30.43
2019-04-19T05:13:01.216Z,35.10
2019-04-19T05:15:01.471Z,32.70
2019-04-19T05:20:06.659Z,21.10
2019-04-19T05:22:28.447Z,24.50
2019-04-19T05:25:14.737Z,20.77
2019-04-19T05:27:34.555Z,20.43
2019-04-19T05:29:44.943Z,32.60
2019-04-19T05:32:16.703Z,22.80
2019-04-19T05:34:55.944Z,19.10
2019-04-19T05:37:21.258Z,19.53
2019-04-19T05:40:07.938Z,23.70
2019-04-19T05:42:46.977Z,23.93
2019-04-19T05:47:40.621Z,28.80
2019-04-19T05:50:21.554Z,22.50
2019-04-19T05:52:42.561Z,22.17
2019-04-19T05:54:53.818Z,26.17
2019-04-19T05:57:40.188Z,30.83
2019-04-19T05:59:56.851Z,30.10
2019-04-19T06:02:26.390Z,34.93
2019-04-19T06:05:10.475Z,29.10
2019-04-19T06:07:31.297Z,23.10
2019-04-19T06:09:43.292Z,23.33
2019-04-19T06:12:19.246Z,18.80
2019-04-19T06:15:05.184Z,23.90
2019-04-19T06:17:43.681Z,22.53
2019-04-19T06:20:13.939Z,21.97
2019-04-19T06:22:38.562Z,22.50
2019-04-19T06:25:12.441Z,21.30
2019-04-19T06:27:53.235Z,26.63
2019-04-19T06:30:10.090Z,26.27
2019-04-19T06:32:40.649Z,21.10
2019-04-19T06:35:02.540Z,28.63
2019-04-19T06:37:21.009Z,25.67
2019-04-19T06:39:43.723Z,23.00
2019-04-19T06:42:13.567Z,20.83
2019-04-19T06:45:00.591Z,19.90
2019-04-19T06:47:16.307Z,29.73
2019-04-19T06:49:37.697Z,24.77
2019-04-19T06:52:11.902Z,27.63
2019-04-19T06:54:37.369Z,24.73
2019-04-19T06:57:12.076Z,25.57
2019-04-19T06:59:50.397Z,19.67
2019-04-19T07:01:59.637Z,25.10
2019-04-19T07:04:27.663Z,23.40
2019-04-19T07:07:15.797Z,25.37
2019-04-19T07:10:04.587Z,21.87
2019-04-19T07:12:16.958Z,23.00
2019-04-19T07:14:25.835Z,31.30
2019-04-19T07:17:05.567Z,22.20
2019-04-19T07:19:41.007Z,21.20
2019-04-19T07:21:59.533Z,21.70
2019-04-19T07:24:39.282Z,20.50
2019-04-19T07:27:04.312Z,18.70
2019-04-19T07:29:12.753Z,21.50
2019-04-19T07:31:40.171Z,22.30
2019-04-19T07:34:27.058Z,30.00
2019-04-19T07:36:57.659Z,22.93
2019-04-19T07:39:25.581Z,20.83
2019-04-19T07:41:54.208Z,26.03
2019-04-19T07:44:38.671Z,22.67
2019-04-19T07:47:41.643Z,28.70
2019-04-19T07:50:08.351Z,28.93
2019-04-19T07:52:40.227Z,25.30
2019-04-19T07:55:02.258Z,16.30
2019-04-19T08:00:21.179Z,19.70
2019-04-19T08:02:49.617Z,22.53
2019-04-19T08:10:09.051Z,19.43
2019-04-19T08:12:46.207Z,19.60
2019-04-19T08:15:17.060Z,33.77
2019-04-19T08:17:47.206Z,32.53
2019-04-19T08:27:16.661Z,19.77
2019-04-19T08:29:47.247Z,29.07
2019-04-19T08:32:10.816Z,17.57
2019-04-19T08:34:40.278Z,36.57
2019-04-19T08:37:16.485Z,24.40
2019-04-19T08:39:49.018Z,23.83
2019-04-19T08:42:28.610Z,28.23
2019-04-19T08:44:46.096Z,17.20
2019-04-19T08:47:31.141Z,15.90
2019-04-19T08:50:04.109Z,23.50
2019-04-19T08:52:33.697Z,22.63
2019-04-19T08:55:20.546Z,41.67
2019-04-19T08:57:30.785Z,19.67
2019-04-19T09:00:25.609Z,19.50
2019-04-19T09:02:43.169Z,27.70
2019-04-19T09:05:14.506Z,22.23
2019-04-19T09:12:45.925Z,19.63
2019-04-19T09:15:10.825Z,35.57
2019-04-19T09:17:59.441Z,18.07
2019-04-19T09:22:36.808Z,11.80
2019-04-19T09:24:56.057Z,28.93
2019-04-19T09:27:39.565Z,21.13
2019-04-19T09:30:09.549Z,19.90
2019-04-19T09:32:20.612Z,18.77
2019-04-19T09:34:49.552Z,13.00
2019-04-19T09:37:18.346Z,17.17
2019-04-19T09:39:50.097Z,21.10
2019-04-19T09:42:16.867Z,13.83
2019-04-19T09:44:41.533Z,16.30
2019-04-19T09:47:05.576Z,20.50
2019-04-19T09:49:47.845Z,16.03
2019-04-19T09:52:27.863Z,16.07
2019-04-19T09:54:52.530Z,14.80
2019-04-19T09:57:16.455Z,11.87
2019-04-19T09:59:33.692Z,18.77
2019-04-19T10:02:00.650Z,15.70
2019-04-19T10:04:25.109Z,22.97
2019-04-19T10:06:53.388Z,18.60
2019-04-19T10:09:22.372Z,17.63
2019-04-19T10:11:48.744Z,14.70
2019-04-19T10:14:15.379Z,17.37
2019-04-19T10:17:05.463Z,12.30
2019-04-19T10:19:33.031Z,12.93
2019-04-19T10:22:06.830Z,16.57
2019-04-19T10:24:33.543Z,15.73
2019-04-19T10:27:09.093Z,12.27
2019-04-19T10:29:40.139Z,15.67
2019-04-19T10:32:15.073Z,17.57
2019-04-19T10:34:42.778Z,18.83
2019-04-19T10:37:10.820Z,18.77
2019-04-19T10:39:37.624Z,18.17
2019-04-19T10:42:06.199Z,17.20
2019-04-19T10:44:33.966Z,23.63
2019-04-19T10:47:01.060Z,19.20
2019-04-19T10:49:36.046Z,21.70
2019-04-19T10:52:07.396Z,17.10
2019-04-19T10:54:34.019Z,20.63
2019-04-19T10:57:08.217Z,26.13
2019-04-19T10:59:36.607Z,20.10
2019-04-19T11:02:04.135Z,18.53
2019-04-19T11:04:31.170Z,19.37
2019-04-19T11:06:59.837Z,18.50
2019-04-19T11:09:27.088Z,20.00
2019-04-19T11:11:55.255Z,15.30
2019-04-19T11:14:22.152Z,11.70
2019-04-19T11:16:49.364Z,14.70
2019-04-19T11:19:20.962Z,16.93
2019-04-19T11:21:45.551Z,17.40
2019-04-19T11:24:13.716Z,14.07
2019-04-19T11:26:41.109Z,14.10
2019-04-19T11:29:08.007Z,19.40
2019-04-19T11:31:49.904Z,10.77
2019-04-19T11:34:17.267Z,11.07
2019-04-19T11:36:44.136Z,15.63
2019-04-19T11:39:12.795Z,15.43
2019-04-19T11:41:39.560Z,14.90
2019-04-19T11:44:15.025Z,17.97
2019-04-19T11:46:35.822Z,14.73
2019-04-19T11:49:03.864Z,16.17
2019-04-19T11:51:32.014Z,14.60
2019-04-19T11:53:59.173Z,13.57
2019-04-19T11:56:50.632Z,14.83
2019-04-19T11:59:36.975Z,14.27
2019-04-19T12:02:04.009Z,13.60
2019-04-19T12:04:30.683Z,18.93
2019-04-19T12:06:58.572Z,19.37
2019-04-19T12:09:25.356Z,17.33
2019-04-19T12:11:51.955Z,18.20
2019-04-19T12:14:19.650Z,14.90
2019-04-19T12:16:47.379Z,13.10
2019-04-19T12:19:14.281Z,16.70
2019-04-19T12:21:41.294Z,16.50
2019-04-19T12:24:08.706Z,17.17
2019-04-19T12:26:35.694Z,11.20
2019-04-19T12:29:05.607Z,13.50
2019-04-19T12:31:31.684Z,11.63
2019-04-19T12:33:59.549Z,24.80
2019-04-19T12:36:26.351Z,13.30
2019-04-19T12:38:53.725Z,13.03
2019-04-19T12:41:21.696Z,13.67
2019-04-19T12:43:49.845Z,16.23
2019-04-19T12:46:16.982Z,11.20
2019-04-19T12:48:43.846Z,15.20
2019-04-19T12:51:12.118Z,13.67
2019-04-19T12:53:39.271Z,17.93
2019-04-19T12:56:06.354Z,15.10
2019-04-19T12:58:33.140Z,11.50
2019-04-19T13:01:28.429Z,22.67
2019-04-19T13:04:06.642Z,14.97
2019-04-19T13:06:35.768Z,14.57
2019-04-19T13:09:05.357Z,15.10
2019-04-19T13:11:32.856Z,12.20
2019-04-19T13:13:59.789Z,13.63
2019-04-19T13:16:26.660Z,10.63
2019-04-19T13:18:54.262Z,17.50
2019-04-19T13:21:21.975Z,20.77
2019-04-19T13:23:48.774Z,17.87
2019-04-19T13:26:15.505Z,14.80
2019-04-19T13:28:43.720Z,14.77
2019-04-19T13:31:12.773Z,14.87
2019-04-19T13:33:39.516Z,12.20
2019-04-19T13:36:11.123Z,16.50
2019-04-19T13:39:01.426Z,15.27
2019-04-19T13:41:54.712Z,22.20
2019-04-19T13:44:22.843Z,12.53
2019-04-19T13:46:50.758Z,16.30
2019-04-19T13:49:18.760Z,13.27
2019-04-19T13:51:45.611Z,15.17
2019-04-19T13:54:12.563Z,13.80
2019-04-19T13:56:40.593Z,16.00
2019-04-19T13:59:07.666Z,11.80
2019-04-19T14:01:34.535Z,11.93
2019-04-19T14:04:01.722Z,18.07
2019-04-19T14:06:28.721Z,15.20
2019-04-19T14:08:55.412Z,14.93
2019-04-19T14:11:22.030Z,12.50
2019-04-19T14:13:53.822Z,11.27
2019-04-19T14:16:18.695Z,19.17
2019-04-19T14:18:46.767Z,13.67
2019-04-19T14:21:14.810Z,14.57
2019-04-19T14:23:41.840Z,11.70
2019-04-19T14:26:09.636Z,16.30
2019-04-19T14:28:36.456Z,13.07
2019-04-19T14:31:04.980Z,14.03
2019-04-19T14:33:32.833Z,17.17
2019-04-19T14:35:59.859Z,15.77
2019-04-19T14:38:27.593Z,12.63
2019-04-19T14:40:55.435Z,14.03
2019-04-19T14:43:22.702Z,14.40
2019-04-19T14:45:50.696Z,14.30
2019-04-19T14:48:25.815Z,15.50
2019-04-19T14:50:52.981Z,13.87
2019-04-19T14:53:14.756Z,11.47
2019-04-19T14:55:41.444Z,13.17
2019-04-19T14:58:08.381Z,12.50
2019-04-19T15:00:35.209Z,12.30
2019-04-19T15:03:10.557Z,11.40
2019-04-19T15:05:39.649Z,12.37
2019-04-19T15:08:06.642Z,12.40
2019-04-19T15:10:33.544Z,16.00
2019-04-19T15:13:00.936Z,18.33
2019-04-19T15:15:29.102Z,13.40
2019-04-19T15:17:57.581Z,13.47
2019-04-19T15:20:24.759Z,10.70
2019-04-19T15:22:52.599Z,12.27
2019-04-19T15:25:21.673Z,17.17
2019-04-19T15:27:48.734Z,11.10
2019-04-19T15:30:17.009Z,18.17
2019-04-19T15:32:44.511Z,12.77
2019-04-19T15:35:14.260Z,14.43
2019-04-19T15:37:41.255Z,18.73
2019-04-19T15:40:09.820Z,18.87
2019-04-19T15:42:36.808Z,13.00
2019-04-19T15:45:05.018Z,14.20
2019-04-19T15:47:32.743Z,18.43
2019-04-19T15:49:59.976Z,13.63
2019-04-19T15:52:28.105Z,20.10
2019-04-19T15:54:56.234Z,20.80
2019-04-19T15:57:23.858Z,16.10
2019-04-19T15:59:51.813Z,16.80
2019-04-19T16:02:38.566Z,14.20
2019-04-19T16:05:26.423Z,16.63
2019-04-19T16:08:04.444Z,17.23
2019-04-19T16:10:36.870Z,14.53
2019-04-19T16:13:03.651Z,25.90
2019-04-19T16:15:30.328Z,16.70
2019-04-19T16:17:57.836Z,18.93
2019-04-19T16:20:25.201Z,14.77
2019-04-19T16:22:52.255Z,14.57
2019-04-19T16:25:19.134Z,18.57
2019-04-19T16:27:46.805Z,18.17
2019-04-19T16:30:14.811Z,15.23
2019-04-19T16:32:41.453Z,16.97
2019-04-19T16:35:09.888Z,15.07
2019-04-19T16:37:37.151Z,14.50
2019-04-19T16:40:10.301Z,15.77
2019-04-19T16:42:36.973Z,17.50
2019-04-19T16:45:05.958Z,19.60
2019-04-19T16:47:33.373Z,17.50
2019-04-19T16:50:00.633Z,18.13
2019-04-19T16:52:28.873Z,14.70
2019-04-19T16:54:58.775Z,13.30
2019-04-19T16:57:28.299Z,16.03
2019-04-19T16:59:52.760Z,15.50
2019-04-19T17:02:19.378Z,19.40
2019-04-19T17:04:46.079Z,12.20
2019-04-19T17:07:13.191Z,18.10
2019-04-19T17:09:42.691Z,18.57
2019-04-19T17:12:10.409Z,15.50
2019-04-19T17:14:37.174Z,19.70
2019-04-19T17:17:24.602Z,20.53
2019-04-19T17:19:55.612Z,16.30
2019-04-19T17:22:36.694Z,17.20
2019-04-19T17:25:05.293Z,12.37
2019-04-19T17:27:33.591Z,17.10
2019-04-19T17:30:02.093Z,13.77
2019-04-19T17:32:30.149Z,16.10
2019-04-19T17:34:58.036Z,16.43
2019-04-19T17:37:26.333Z,13.93
2019-04-19T17:39:53.094Z,15.60
2019-04-19T17:42:19.683Z,14.17
2019-04-19T17:44:47.322Z,11.83
2019-04-19T17:47:17.019Z,16.73
2019-04-19T17:49:45.363Z,20.30
2019-04-19T17:52:20.894Z,14.77
2019-04-19T17:54:55.857Z,15.83
2019-04-19T17:57:09.257Z,15.23
2019-04-19T17:59:36.373Z,11.63
2019-04-19T18:02:03.425Z,15.67
2019-04-19T18:04:30.597Z,12.33
2019-04-19T18:07:01.232Z,15.20
2019-04-19T18:09:26.400Z,17.97
2019-04-19T18:11:53.548Z,12.33
2019-04-19T18:14:20.375Z,12.63
2019-04-19T18:16:48.358Z,18.70
2019-04-19T18:19:23.276Z,10.30
2019-04-19T18:21:44.128Z,11.30
2019-04-19T18:24:20.089Z,16.23
2019-04-19T18:26:39.724Z,21.90
2019-04-19T18:29:07.675Z,14.67
2019-04-19T18:31:40.713Z,12.30
2019-04-19T18:34:09.626Z,8.73
2019-04-19T18:36:32.619Z,13.27
2019-04-19T18:39:00.264Z,17.30
2019-04-19T18:41:27.314Z,10.13
2019-04-19T18:44:04.650Z,13.33
2019-04-19T18:46:22.738Z,13.70
2019-04-19T18:48:49.619Z,13.57
2019-04-19T18:51:20.742Z,18.90
2019-04-19T18:53:58.247Z,11.40
2019-04-19T18:56:19.207Z,12.47
2019-04-19T18:58:43.998Z,30.60
2019-04-19T19:01:21.288Z,16.70
2019-04-19T19:03:43.122Z,19.87
2019-04-19T19:06:09.572Z,9.90
2019-04-19T19:08:47.283Z,10.23
2019-04-19T19:11:12.971Z,11.97
2019-04-19T19:13:36.146Z,9.40
2019-04-19T19:16:02.352Z,15.67
2019-04-19T19:18:35.076Z,15.77
2019-04-19T19:21:01.125Z,14.93
2019-04-19T19:23:43.198Z,9.10
2019-04-19T19:26:07.252Z,16.70
2019-04-19T19:28:24.926Z,16.13
2019-04-19T19:30:53.194Z,17.13
2019-04-19T19:33:23.821Z,18.33
2019-04-19T19:35:54.915Z,12.97
2019-04-19T19:38:25.497Z,17.43
2019-04-19T19:41:00.042Z,11.80
2019-04-19T19:43:34.062Z,16.40
2019-04-19T19:45:55.845Z,13.57
2019-04-19T19:48:28.546Z,18.07
2019-04-19T19:53:44.410Z,13.60
2019-04-19T19:56:07.341Z,15.80
2019-04-19T19:58:17.206Z,19.80
2019-04-19T20:00:56.729Z,19.30
2019-04-19T20:03:13.483Z,23.10
2019-04-19T20:05:36.472Z,12.67
2019-04-19T20:08:01.679Z,18.67
2019-04-19T20:10:36.107Z,20.53
2019-04-19T20:13:00.903Z,15.00
2019-04-19T20:15:28.917Z,13.97
2019-04-19T20:17:57.959Z,12.00
2019-04-19T20:20:30.940Z,13.07
2019-04-19T20:22:52.477Z,11.77
2019-04-19T20:25:32.474Z,11.47
2019-04-19T20:27:52.070Z,14.20
2019-04-19T20:30:17.430Z,20.77
2019-04-19T20:32:44.794Z,21.50
2019-04-19T20:35:17.615Z,18.27
2019-04-19T20:37:41.982Z,25.17
2019-04-19T20:40:15.602Z,15.00
2019-04-19T20:43:02.093Z,24.90
2019-04-19T20:45:16.547Z,19.63
2019-04-19T20:47:43.751Z,14.80
2019-04-19T20:50:17.336Z,13.10
2019-04-19T20:52:45.380Z,12.07
2019-04-19T20:55:25.097Z,10.87
2019-04-19T20:58:09.798Z,10.57
2019-04-19T21:00:35.027Z,13.10
2019-04-19T21:03:01.802Z,12.60
2019-04-19T21:05:34.711Z,12.30
2019-04-19T21:08:01.764Z,11.83
2019-04-19T21:10:25.796Z,16.80
2019-04-19T21:12:55.637Z,9.00
2019-04-19T21:15:28.087Z,13.43
2019-04-19T21:17:51.542Z,14.70
2019-04-19T21:20:23.930Z,13.00
2019-04-19T21:22:48.556Z,13.97
2019-04-19T21:25:19.923Z,10.40
2019-04-19T21:27:49.206Z,13.20
2019-04-19T21:30:14.707Z,11.83
2019-04-19T21:32:41.488Z,14.80
2019-04-19T21:35:12.240Z,13.67
2019-04-19T21:37:42.379Z,9.73
2019-04-19T21:40:06.297Z,12.50
2019-04-19T21:42:39.625Z,12.50
2019-04-19T21:45:03.519Z,16.60
2019-04-19T21:47:34.018Z,14.73
2019-04-19T21:50:01.201Z,12.07
2019-04-19T21:52:29.078Z,10.60
2019-04-19T21:55:10.360Z,20.13
2019-04-19T21:57:29.535Z,16.10
2019-04-19T21:59:54.235Z,11.67
2019-04-19T22:02:36.619Z,11.50
2019-04-19T22:04:57.410Z,9.57
2019-04-19T22:07:25.438Z,26.80
2019-04-19T22:09:58.499Z,13.87
2019-04-19T22:12:20.884Z,7.93
2019-04-19T22:14:48.582Z,13.30
2019-04-19T22:17:19.724Z,13.87
2019-04-19T22:19:44.175Z,17.43
2019-04-19T22:22:19.212Z,15.57
2019-04-19T22:24:41.043Z,17.50
2019-04-19T22:27:07.994Z,41.87
2019-04-19T22:29:35.701Z,10.60
2019-04-19T22:32:08.515Z,18.57
2019-04-19T22:34:32.646Z,16.13
2019-04-19T22:37:01.741Z,14.87
2019-04-19T22:39:28.100Z,16.53
2019-04-19T22:41:54.991Z,14.37
2019-04-19T22:44:22.830Z,13.50
2019-04-19T22:46:52.878Z,10.50
2019-04-19T22:49:19.897Z,13.40
2019-04-19T22:51:46.696Z,11.73
2019-04-19T22:54:14.819Z,16.43
2019-04-19T22:56:52.448Z,19.30
2019-04-19T22:59:16.151Z,15.67
2019-04-19T23:02:01.521Z,12.73
2019-04-19T23:04:26.565Z,17.10
2019-04-19T23:07:01.088Z,31.43
2019-04-19T23:09:23.171Z,27.70
2019-04-19T23:11:51.226Z,24.80
2019-04-19T23:14:41.458Z,15.83
2019-04-19T23:17:08.199Z,19.97
2019-04-19T23:19:39.252Z,13.43
2019-04-19T23:22:03.760Z,18.10
2019-04-19T23:24:31.211Z,16.33
2019-04-19T23:27:10.986Z,16.67
2019-04-19T23:29:30.756Z,14.77
2019-04-19T23:31:55.973Z,13.83
2019-04-19T23:34:25.186Z,10.53
2019-04-19T23:36:59.724Z,11.23
2019-04-19T23:39:21.202Z,14.00
2019-04-19T23:41:49.056Z,27.40
2019-04-19T23:44:19.494Z,20.50
2019-04-19T23:46:45.451Z,19.57
2019-04-19T23:49:14.568Z,20.40
2019-04-19T23:51:41.128Z,12.80
2019-04-19T23:54:15.104Z,12.97
2019-04-19T23:56:49.151Z,10.87
2019-04-19T23:59:12.882Z,13.33
